KPOU/POU METAR and TAF weather

Enter ICAO airport designator
Station Type Date Time Source
KPOU METAR 2019/06/27 03:53 UTC NOAA

KPOU 270353Z AUTO 00000KT 10SM BKN090 19/18 A3006 RMK AO2 SLP175 T01940178


Station Type Date Time Source
KPOU Decoded METAR 2019/06/27 03:53 UTC NOAA

POUGHKEEPSIE DUTCHESS CTY, NY, United States (KPOU) 41-38N 073-53W 46M
Jun 26, 2019 - 11:53 PM EDT / 2019.06.27 0353 UTC
Wind: Calm:0
Visibility: 10 mile(s):0
Sky conditions: mostly cloudy
Temperature: 66.9 F (19.4 C)
Dew Point: 64.0 F (17.8 C)
Relative Humidity: 90%
Pressure (altimeter): 30.06 in. Hg (1017 hPa)
ob: KPOU 270353Z AUTO 00000KT 10SM BKN090 19/18 A3006 RMK AO2 SLP175 T01940178
cycle: 4

Station Type Date Time Source
KPOU TAF 2019/06/26 22:06 UTC NOAA

TAF
AMD KPOU 262203Z 2622/2718 17005KT P6SM FEW080
FM262300 22004KT P6SM SCT070
TEMPO 2623/2701 27015G25KT 4SM TSRA OVC040CB
FM270200 VRB03KT P6SM SCT060

Example: see airport list